createdAt,value
2023-04-19T00:01:31.597Z,6.57
2023-04-19T00:03:59.746Z,6.35
2023-04-19T00:06:30.461Z,5.30
2023-04-19T00:08:58.074Z,5.70
2023-04-19T00:11:25.955Z,7.45
2023-04-19T00:13:53.719Z,7.05
2023-04-19T00:16:21.553Z,5.85
2023-04-19T00:18:49.425Z,8.93
2023-04-19T00:21:17.482Z,7.80
2023-04-19T00:23:44.994Z,5.85
2023-04-19T00:26:15.699Z,7.37
2023-04-19T00:28:43.794Z,6.65
2023-04-19T00:31:11.671Z,6.97
2023-04-19T00:33:39.513Z,6.47
2023-04-19T00:36:13.274Z,6.45
2023-04-19T00:38:41.441Z,7.45
2023-04-19T00:41:11.015Z,7.12
2023-04-19T00:43:39.119Z,9.93
2023-04-19T00:46:07.737Z,6.20
2023-04-19T00:48:38.115Z,6.00
2023-04-19T00:51:05.861Z,6.53
2023-04-19T00:53:34.298Z,6.80
2023-04-19T00:56:04.689Z,6.60
2023-04-19T00:58:32.415Z,6.17
2023-04-19T01:01:00.534Z,6.20
2023-04-19T01:03:29.461Z,6.87
2023-04-19T01:05:57.347Z,7.82
2023-04-19T01:08:25.456Z,7.90
2023-04-19T01:10:54.437Z,6.97
2023-04-19T01:13:21.887Z,9.02
2023-04-19T01:15:49.896Z,8.43
2023-04-19T01:18:19.369Z,7.47
2023-04-19T01:20:46.915Z,7.80
2023-04-19T01:23:14.887Z,7.83
2023-04-19T01:25:42.474Z,9.80
2023-04-19T01:28:09.974Z,12.02
2023-04-19T01:30:38.004Z,10.35
2023-04-19T01:33:05.640Z,8.93
2023-04-19T01:35:33.192Z,7.93
2023-04-19T01:38:02.097Z,7.87
2023-04-19T01:40:29.771Z,9.10
2023-04-19T01:42:58.439Z,8.43
2023-04-19T01:45:26.837Z,8.75
2023-04-19T01:47:56.083Z,10.13
2023-04-19T01:50:23.745Z,11.00
2023-04-19T01:52:51.498Z,10.00
2023-04-19T01:55:19.092Z,10.15
2023-04-19T01:57:46.914Z,10.05
2023-04-19T02:00:15.356Z,9.73
2023-04-19T02:02:42.943Z,7.37
2023-04-19T02:05:11.528Z,8.25
2023-04-19T02:07:39.231Z,8.82
2023-04-19T02:10:09.894Z,10.40
2023-04-19T02:12:38.244Z,9.27
2023-04-19T02:15:06.459Z,9.27
2023-04-19T02:17:35.893Z,9.73
2023-04-19T02:20:04.774Z,9.07
2023-04-19T02:22:35.503Z,9.10
2023-04-19T02:25:04.646Z,11.40
2023-04-19T02:27:32.511Z,10.45
2023-04-19T02:30:01.169Z,8.43
2023-04-19T02:32:28.739Z,9.40
2023-04-19T02:34:56.603Z,11.88
2023-04-19T02:37:24.290Z,9.57
2023-04-19T02:39:51.918Z,8.00
2023-04-19T02:42:19.685Z,9.15
2023-04-19T02:44:47.219Z,14.40
2023-04-19T02:47:15.786Z,12.57
2023-04-19T02:49:43.572Z,9.80
2023-04-19T02:52:11.251Z,10.45
2023-04-19T02:54:39.497Z,10.40
2023-04-19T02:57:07.410Z,11.27
2023-04-19T02:59:35.410Z,11.32
2023-04-19T03:02:03.971Z,11.90
2023-04-19T03:04:32.307Z,13.15
2023-04-19T03:06:59.833Z,10.18
2023-04-19T03:09:27.357Z,10.95
2023-04-19T03:11:55.298Z,9.10
2023-04-19T03:14:22.918Z,8.87
2023-04-19T03:16:51.213Z,9.68
2023-04-19T03:19:19.207Z,8.88
2023-04-19T03:21:47.245Z,9.65
2023-04-19T03:24:15.316Z,9.45
2023-04-19T03:26:44.498Z,10.40
2023-04-19T03:29:14.333Z,11.43
2023-04-19T03:31:42.012Z,9.73
2023-04-19T03:34:11.090Z,10.20
2023-04-19T03:36:39.850Z,10.18
2023-04-19T03:39:07.469Z,8.43
2023-04-19T03:41:35.620Z,7.95
2023-04-19T03:44:03.912Z,9.05
2023-04-19T03:46:31.764Z,9.88
2023-04-19T03:49:00.287Z,10.18
2023-04-19T03:51:28.281Z,11.47
2023-04-19T03:53:56.316Z,10.20
2023-04-19T03:56:24.239Z,9.15
2023-04-19T03:58:52.322Z,9.30
2023-04-19T04:01:21.296Z,9.32
2023-04-19T04:03:49.647Z,11.20
2023-04-19T04:06:18.475Z,10.60
2023-04-19T04:08:46.333Z,12.20
2023-04-19T04:11:14.216Z,8.82
2023-04-19T04:13:43.307Z,10.82
2023-04-19T04:16:11.364Z,8.67
2023-04-19T04:18:42.321Z,9.13
2023-04-19T04:21:09.914Z,10.30
2023-04-19T04:23:38.549Z,9.10
2023-04-19T04:26:10.052Z,11.35
2023-04-19T04:28:38.846Z,13.43
2023-04-19T04:31:07.542Z,9.35
2023-04-19T04:33:36.088Z,9.07
2023-04-19T04:36:05.686Z,10.82
2023-04-19T04:38:35.011Z,10.73
2023-04-19T04:41:03.016Z,10.80
2023-04-19T04:43:30.840Z,12.40
2023-04-19T04:45:59.520Z,12.10
2023-04-19T04:48:27.580Z,13.93
2023-04-19T04:50:55.392Z,11.45
2023-04-19T04:53:25.592Z,11.53
2023-04-19T04:55:54.231Z,15.82
2023-04-19T04:58:21.856Z,12.88
2023-04-19T05:00:52.952Z,12.10
2023-04-19T05:03:21.020Z,10.20
2023-04-19T05:05:48.928Z,11.17
2023-04-19T05:08:17.824Z,9.43
2023-04-19T05:10:45.687Z,9.27
2023-04-19T05:13:13.657Z,8.48
2023-04-19T05:15:41.548Z,8.52
2023-04-19T05:18:09.207Z,7.77
2023-04-19T05:20:36.990Z,7.57
2023-04-19T05:23:05.882Z,7.35
2023-04-19T05:25:33.709Z,7.65
2023-04-19T05:28:03.786Z,10.75
2023-04-19T05:30:32.379Z,9.33
2023-04-19T05:33:01.011Z,8.77
2023-04-19T05:35:28.568Z,10.13
2023-04-19T05:37:56.609Z,11.12
2023-04-19T05:40:24.944Z,9.82
2023-04-19T05:42:52.988Z,9.27
2023-04-19T05:45:22.345Z,13.85
2023-04-19T05:47:50.195Z,9.90
2023-04-19T05:50:20.618Z,10.50
2023-04-19T05:52:48.660Z,17.17
2023-04-19T05:55:16.282Z,9.77
2023-04-19T05:57:44.235Z,9.82
2023-04-19T06:00:12.748Z,11.70
2023-04-19T06:02:41.097Z,10.95
2023-04-19T06:05:11.130Z,10.00
2023-04-19T06:07:43.231Z,15.43
2023-04-19T06:10:18.393Z,9.63
2023-04-19T06:12:46.254Z,9.43
2023-04-19T06:15:13.867Z,10.27
2023-04-19T06:17:42.125Z,11.57
2023-04-19T06:20:10.253Z,10.27
2023-04-19T06:22:48.534Z,11.63
2023-04-19T06:25:16.339Z,9.52
2023-04-19T06:27:43.826Z,9.38
2023-04-19T06:30:11.523Z,9.40
2023-04-19T06:32:39.473Z,13.07
2023-04-19T06:35:07.541Z,10.27
2023-04-19T06:37:35.396Z,16.55
2023-04-19T06:40:05.349Z,19.90
2023-04-19T06:42:32.907Z,17.25
2023-04-19T06:45:01.322Z,12.73
2023-04-19T06:47:29.469Z,12.20
2023-04-19T06:49:57.330Z,11.88
2023-04-19T06:52:25.246Z,13.02
2023-04-19T06:54:53.137Z,9.48
2023-04-19T06:57:20.715Z,9.50
2023-04-19T06:59:48.265Z,10.00
2023-04-19T07:02:16.418Z,10.65
2023-04-19T07:04:44.154Z,10.18
2023-04-19T07:07:12.184Z,11.02
2023-04-19T07:09:40.158Z,9.97
2023-04-19T07:12:07.820Z,9.93
2023-04-19T07:14:35.303Z,10.60
2023-04-19T07:17:05.585Z,10.27
2023-04-19T07:19:33.219Z,9.57
2023-04-19T07:22:01.036Z,13.80
2023-04-19T07:24:30.385Z,11.98
2023-04-19T07:26:57.894Z,9.18
2023-04-19T07:29:25.518Z,10.52
2023-04-19T07:31:55.440Z,10.02
2023-04-19T07:34:23.001Z,10.37
2023-04-19T07:36:50.465Z,11.50
2023-04-19T07:39:18.228Z,10.52
2023-04-19T07:41:46.425Z,9.00
2023-04-19T07:44:14.499Z,9.00
2023-04-19T07:46:45.659Z,8.87
2023-04-19T07:49:15.148Z,9.20
2023-04-19T07:51:42.998Z,9.90
2023-04-19T07:54:11.000Z,10.57
2023-04-19T07:56:38.496Z,11.20
2023-04-19T07:59:09.084Z,9.33
2023-04-19T08:01:37.426Z,9.55
2023-04-19T08:04:06.205Z,8.98
2023-04-19T08:06:34.505Z,12.55
2023-04-19T08:09:02.104Z,11.32
2023-04-19T08:11:29.950Z,10.83
2023-04-19T08:17:09.131Z,11.55
2023-04-19T08:19:16.064Z,9.80
2023-04-19T08:21:43.876Z,9.98
2023-04-19T08:24:11.360Z,10.20
2023-04-19T08:26:39.295Z,11.80
2023-04-19T08:29:07.281Z,10.90
2023-04-19T08:31:35.081Z,11.20
2023-04-19T08:34:02.973Z,10.93
2023-04-19T08:36:39.158Z,12.83
2023-04-19T08:39:17.773Z,11.30
2023-04-19T08:42:04.813Z,11.73
2023-04-19T08:44:43.312Z,12.18
2023-04-19T08:47:30.114Z,13.55
2023-04-19T08:50:20.276Z,12.67
2023-04-19T08:52:55.957Z,13.15
2023-04-19T08:55:28.136Z,12.25
2023-04-19T08:57:57.035Z,12.75
2023-04-19T09:00:24.639Z,12.75
2023-04-19T09:02:55.948Z,11.97
2023-04-19T09:05:23.973Z,16.60
2023-04-19T09:07:52.137Z,14.48
2023-04-19T09:10:20.888Z,12.50
2023-04-19T09:13:02.100Z,17.15
2023-04-19T09:15:38.334Z,13.27
2023-04-19T09:18:10.247Z,14.30
2023-04-19T09:20:39.808Z,15.60
2023-04-19T09:23:09.352Z,13.77
2023-04-19T09:25:55.104Z,11.93
2023-04-19T09:28:24.813Z,15.20
2023-04-19T09:31:00.610Z,12.93
2023-04-19T09:33:39.949Z,13.00
2023-04-19T09:36:08.399Z,13.32
2023-04-19T09:38:50.098Z,13.02
2023-04-19T09:41:17.700Z,10.90
2023-04-19T09:44:03.179Z,14.87
2023-04-19T09:46:34.817Z,15.45
2023-04-19T09:49:27.963Z,11.77
2023-04-19T09:51:58.210Z,12.27
2023-04-19T09:54:30.020Z,13.27
2023-04-19T09:56:58.914Z,12.10
2023-04-19T09:59:28.106Z,13.50
2023-04-19T10:01:56.557Z,12.02
2023-04-19T10:04:33.552Z,13.80
2023-04-19T10:09:51.369Z,12.40
2023-04-19T10:14:57.567Z,12.55
2023-04-19T10:17:25.463Z,12.85
2023-04-19T10:19:58.550Z,15.60
2023-04-19T10:22:26.942Z,16.35
2023-04-19T10:25:11.625Z,14.18
2023-04-19T10:27:41.070Z,19.45
2023-04-19T10:30:20.730Z,13.62
2023-04-19T10:32:56.951Z,15.33
2023-04-19T10:35:32.266Z,12.88
2023-04-19T10:38:06.970Z,11.82
2023-04-19T10:41:03.653Z,13.43
2023-04-19T10:43:34.264Z,11.95
2023-04-19T10:46:08.876Z,13.27
2023-04-19T10:48:43.858Z,15.30
2023-04-19T10:51:14.634Z,15.27
2023-04-19T10:53:50.871Z,14.85
2023-04-19T10:56:23.608Z,15.35
2023-04-19T10:59:00.879Z,14.20
2023-04-19T11:01:40.252Z,16.17
2023-04-19T11:04:31.609Z,18.60
2023-04-19T11:07:03.409Z,15.70
2023-04-19T11:09:38.824Z,16.05
2023-04-19T11:12:18.865Z,16.07
2023-04-19T11:14:53.189Z,20.77
2023-04-19T11:17:28.856Z,16.12
2023-04-19T11:19:58.614Z,17.77
2023-04-19T11:22:36.272Z,19.55
2023-04-19T11:25:07.972Z,17.43
2023-04-19T11:27:35.691Z,17.85
2023-04-19T11:30:08.591Z,19.98
2023-04-19T11:32:37.208Z,20.08
2023-04-19T11:35:08.959Z,20.75
2023-04-19T11:37:38.580Z,20.73
2023-04-19T11:40:07.352Z,17.33
2023-04-19T11:42:36.015Z,18.33
2023-04-19T11:45:04.139Z,16.85
2023-04-19T11:47:32.948Z,18.73
2023-04-19T11:50:39.395Z,15.57
2023-04-19T11:53:16.600Z,15.63
2023-04-19T11:55:51.024Z,14.13
2023-04-19T11:58:30.079Z,18.42
2023-04-19T12:01:04.859Z,13.05
2023-04-19T12:03:41.263Z,13.23
2023-04-19T12:06:12.742Z,14.30
2023-04-19T12:08:47.148Z,13.10
2023-04-19T12:11:16.366Z,15.48
2023-04-19T12:13:44.620Z,14.52
2023-04-19T12:16:13.776Z,14.53
2023-04-19T12:18:49.092Z,13.95
2023-04-19T12:21:27.259Z,13.80
2023-04-19T12:23:56.726Z,13.18
2023-04-19T12:26:26.179Z,13.90
2023-04-19T12:28:57.643Z,13.57
2023-04-19T12:31:26.094Z,12.65
2023-04-19T12:33:54.379Z,13.00
2023-04-19T12:36:22.345Z,13.30
2023-04-19T12:38:50.107Z,13.43
2023-04-19T12:41:17.889Z,16.20
2023-04-19T12:43:45.486Z,13.80
2023-04-19T12:46:13.366Z,12.73
2023-04-19T12:48:41.309Z,12.60
2023-04-19T12:51:09.182Z,16.98
2023-04-19T12:53:37.556Z,18.53
2023-04-19T12:56:06.104Z,16.25
2023-04-19T12:58:33.645Z,16.87
2023-04-19T13:01:02.858Z,17.33
2023-04-19T13:03:36.523Z,17.73
2023-04-19T13:06:04.913Z,15.37
2023-04-19T13:08:44.262Z,18.52
2023-04-19T13:11:13.962Z,20.50
2023-04-19T13:13:41.657Z,19.77
2023-04-19T13:16:09.254Z,21.45
2023-04-19T13:18:37.162Z,24.47
2023-04-19T13:21:06.712Z,17.77
2023-04-19T13:23:36.256Z,22.13
2023-04-19T13:26:04.858Z,19.70
2023-04-19T13:28:35.772Z,18.17
2023-04-19T13:31:05.359Z,16.57
2023-04-19T13:33:33.005Z,18.67
2023-04-19T13:36:00.615Z,17.25
2023-04-19T13:38:28.407Z,15.52
2023-04-19T13:40:56.249Z,16.42
2023-04-19T13:43:24.109Z,17.90
2023-04-19T13:45:52.321Z,18.42
2023-04-19T13:48:19.909Z,13.60
2023-04-19T13:50:49.156Z,14.50
2023-04-19T13:53:18.832Z,16.35
2023-04-19T13:55:46.595Z,14.80
2023-04-19T13:58:15.325Z,16.30
2023-04-19T14:00:43.250Z,16.23
2023-04-19T14:03:11.670Z,20.50
2023-04-19T14:05:39.339Z,15.57
2023-04-19T14:08:07.240Z,16.17
2023-04-19T14:10:35.490Z,15.05
2023-04-19T14:13:03.336Z,15.48
2023-04-19T14:15:31.064Z,19.05
2023-04-19T14:17:59.330Z,13.65
2023-04-19T14:20:26.833Z,12.93
2023-04-19T14:22:59.070Z,15.68
2023-04-19T14:25:27.344Z,13.35
2023-04-19T14:27:54.826Z,14.05
2023-04-19T14:30:22.431Z,12.77
2023-04-19T14:32:50.284Z,12.40
2023-04-19T14:35:27.272Z,12.88
2023-04-19T14:37:55.156Z,15.68
2023-04-19T14:40:23.663Z,17.73
2023-04-19T14:42:51.429Z,14.77
2023-04-19T14:45:19.294Z,12.93
2023-04-19T14:47:47.109Z,12.85
2023-04-19T14:50:14.676Z,14.52
2023-04-19T14:52:42.508Z,11.80
2023-04-19T14:55:10.862Z,12.68
2023-04-19T14:57:38.353Z,13.20
2023-04-19T15:00:06.959Z,12.15
2023-04-19T15:02:34.677Z,13.45
2023-04-19T15:05:02.468Z,13.93
2023-04-19T15:07:30.753Z,12.45
2023-04-19T15:09:58.925Z,16.70
2023-04-19T15:12:26.449Z,11.63
2023-04-19T15:14:54.282Z,13.27
2023-04-19T15:17:21.829Z,13.27
2023-04-19T15:19:49.444Z,12.20
2023-04-19T15:22:17.273Z,11.07
2023-04-19T15:24:44.843Z,11.25
2023-04-19T15:27:12.756Z,11.60
2023-04-19T15:29:41.360Z,9.45
2023-04-19T15:32:09.362Z,9.02
2023-04-19T15:34:36.951Z,9.70
2023-04-19T15:37:06.530Z,9.30
2023-04-19T15:39:34.160Z,9.93
2023-04-19T15:42:02.224Z,10.63
2023-04-19T15:44:30.128Z,9.90
2023-04-19T15:46:57.827Z,10.33
2023-04-19T15:49:25.588Z,11.55
2023-04-19T15:51:53.658Z,14.93
2023-04-19T15:54:23.039Z,10.50
2023-04-19T15:56:50.749Z,20.48
2023-04-19T15:59:18.804Z,14.80
2023-04-19T16:01:46.720Z,10.82
2023-04-19T16:04:15.233Z,10.73
2023-04-19T16:06:43.072Z,11.93
2023-04-19T16:09:10.700Z,12.93
2023-04-19T16:11:39.254Z,10.77
2023-04-19T16:14:06.805Z,10.55
2023-04-19T16:16:34.635Z,12.35
2023-04-19T16:19:02.572Z,8.85
2023-04-19T16:21:30.184Z,6.60
2023-04-19T16:23:57.748Z,10.23
2023-04-19T16:26:25.757Z,7.78
2023-04-19T16:28:54.937Z,8.38
2023-04-19T16:31:22.940Z,8.93
2023-04-19T16:33:50.914Z,10.27
2023-04-19T16:36:18.422Z,9.43
2023-04-19T16:38:46.831Z,9.07
2023-04-19T16:41:14.617Z,9.02
2023-04-19T16:43:42.170Z,10.18
2023-04-19T16:46:09.899Z,9.45
2023-04-19T16:48:37.764Z,11.13
2023-04-19T16:51:05.796Z,9.50
2023-04-19T16:53:33.813Z,10.50
2023-04-19T16:56:03.594Z,11.07
2023-04-19T16:58:31.273Z,9.57
2023-04-19T17:00:58.935Z,10.67
2023-04-19T17:03:28.587Z,11.77
2023-04-19T17:05:57.244Z,10.23
2023-04-19T17:08:24.866Z,11.40
2023-04-19T17:10:53.068Z,10.40
2023-04-19T17:13:20.798Z,9.80
2023-04-19T17:15:48.764Z,10.40
2023-04-19T17:18:16.791Z,8.82
2023-04-19T17:20:44.572Z,9.32
2023-04-19T17:23:15.387Z,8.60
2023-04-19T17:25:43.177Z,9.43
2023-04-19T17:28:10.676Z,8.95
2023-04-19T17:30:38.255Z,9.90
2023-04-19T17:33:06.369Z,9.10
2023-04-19T17:35:33.880Z,10.02
2023-04-19T17:38:01.438Z,9.23
2023-04-19T17:40:29.831Z,9.05
2023-04-19T17:42:57.568Z,10.35
2023-04-19T17:45:25.147Z,9.85
2023-04-19T17:47:55.775Z,9.40
2023-04-19T17:50:24.618Z,9.23
2023-04-19T17:52:52.214Z,10.25
2023-04-19T17:55:20.195Z,9.60
2023-04-19T17:57:48.040Z,9.23
2023-04-19T18:00:16.336Z,9.70
2023-04-19T18:02:43.880Z,11.03
2023-04-19T18:05:13.564Z,10.15
2023-04-19T18:07:41.536Z,10.77
2023-04-19T18:10:10.858Z,9.38
2023-04-19T18:12:38.763Z,9.75
2023-04-19T18:15:07.258Z,11.00
2023-04-19T18:17:35.856Z,10.75
2023-04-19T18:20:07.000Z,10.02
2023-04-19T18:22:34.713Z,9.75
2023-04-19T18:25:02.304Z,11.60
2023-04-19T18:27:32.342Z,11.40
2023-04-19T18:30:03.914Z,9.70
2023-04-19T18:32:32.803Z,9.50
2023-04-19T18:35:00.391Z,10.43
2023-04-19T18:37:28.048Z,11.20
2023-04-19T18:39:55.975Z,9.53
2023-04-19T18:42:23.926Z,12.50
2023-04-19T18:44:55.946Z,9.73
2023-04-19T18:47:26.328Z,10.73
2023-04-19T18:50:04.624Z,9.75
2023-04-19T18:52:35.279Z,9.97
2023-04-19T18:55:04.171Z,9.90
2023-04-19T18:57:34.633Z,10.13
2023-04-19T19:00:06.072Z,11.98
2023-04-19T19:02:36.406Z,10.18
2023-04-19T19:05:07.438Z,13.50
2023-04-19T19:07:37.462Z,11.02
2023-04-19T19:10:18.562Z,12.63
2023-04-19T19:12:49.610Z,10.93
2023-04-19T19:15:18.277Z,11.05
2023-04-19T19:17:49.244Z,11.63
2023-04-19T19:20:19.208Z,9.30
2023-04-19T19:22:46.945Z,10.75
2023-04-19T19:25:14.580Z,10.48
2023-04-19T19:27:58.424Z,9.98
2023-04-19T19:30:33.687Z,10.70
2023-04-19T19:33:03.051Z,11.52
2023-04-19T19:35:30.707Z,10.43
2023-04-19T19:37:58.419Z,11.48
2023-04-19T19:40:30.670Z,10.77
2023-04-19T19:42:58.984Z,11.20
2023-04-19T19:45:28.483Z,11.40
2023-04-19T19:47:59.033Z,11.88
2023-04-19T19:53:00.782Z,11.70
2023-04-19T19:55:30.297Z,11.77
2023-04-19T20:03:01.337Z,12.60
2023-04-19T20:05:29.675Z,11.60
2023-04-19T20:08:07.936Z,15.33
2023-04-19T20:10:37.025Z,13.80
2023-04-19T20:13:06.605Z,12.00
2023-04-19T20:15:35.825Z,12.37
2023-04-19T20:18:04.407Z,12.52
2023-04-19T20:20:32.122Z,12.13
2023-04-19T20:22:59.775Z,12.15
2023-04-19T20:25:27.612Z,12.45
2023-04-19T20:27:55.315Z,14.35
2023-04-19T20:30:23.077Z,13.52
2023-04-19T20:32:51.097Z,12.27
2023-04-19T20:35:18.793Z,11.48
2023-04-19T20:37:46.604Z,11.88
2023-04-19T20:40:16.261Z,10.85
2023-04-19T20:42:44.999Z,10.85
2023-04-19T20:45:15.488Z,13.70
2023-04-19T20:47:43.373Z,10.80
2023-04-19T20:50:11.265Z,13.68
2023-04-19T20:52:38.908Z,12.10
2023-04-19T20:55:07.854Z,14.10
2023-04-19T20:57:35.518Z,12.97
2023-04-19T21:00:04.598Z,11.85
2023-04-19T21:02:32.732Z,11.82
2023-04-19T21:05:00.588Z,13.80
2023-04-19T21:07:28.061Z,13.43
2023-04-19T21:09:56.083Z,11.90
2023-04-19T21:12:23.628Z,11.80
2023-04-19T21:14:52.801Z,12.20
2023-04-19T21:17:21.450Z,13.15
2023-04-19T21:19:49.088Z,12.95
2023-04-19T21:22:16.615Z,12.90
2023-04-19T21:24:44.315Z,12.50
2023-04-19T21:27:11.801Z,12.32
2023-04-19T21:29:39.821Z,11.18
2023-04-19T21:32:07.911Z,13.02
2023-04-19T21:34:35.529Z,13.60
2023-04-19T21:37:03.563Z,11.90
2023-04-19T21:39:31.602Z,12.63
2023-04-19T21:41:59.374Z,11.80
2023-04-19T21:44:26.958Z,13.98
2023-04-19T21:46:54.722Z,14.57
2023-04-19T21:49:22.425Z,13.23
2023-04-19T21:51:51.142Z,13.85
2023-04-19T21:54:30.515Z,13.48
2023-04-19T21:57:00.013Z,12.35
2023-04-19T21:59:28.491Z,13.10
2023-04-19T22:01:57.175Z,12.02
2023-04-19T22:04:25.258Z,10.77
2023-04-19T22:06:52.808Z,12.50
2023-04-19T22:09:20.323Z,9.27
2023-04-19T22:11:50.275Z,10.50
2023-04-19T22:14:18.060Z,10.55
2023-04-19T22:16:47.524Z,11.05
2023-04-19T22:19:16.215Z,10.43
2023-04-19T22:21:44.723Z,10.52
2023-04-19T22:24:12.237Z,10.43
2023-04-19T22:26:40.140Z,9.20
2023-04-19T22:29:07.779Z,12.95
2023-04-19T22:31:39.602Z,11.20
2023-04-19T22:34:07.325Z,10.88
2023-04-19T22:36:34.874Z,9.33
2023-04-19T22:39:02.515Z,11.32
2023-04-19T22:41:31.195Z,14.10
2023-04-19T22:43:59.382Z,10.85
2023-04-19T22:46:27.323Z,10.52
2023-04-19T22:48:58.071Z,11.77
2023-04-19T22:51:25.528Z,11.48
2023-04-19T22:53:53.382Z,12.00
2023-04-19T22:56:21.451Z,11.02
2023-04-19T22:58:49.044Z,10.57
2023-04-19T23:01:16.579Z,10.60
2023-04-19T23:03:44.403Z,11.82
2023-04-19T23:06:12.207Z,10.15
2023-04-19T23:08:40.374Z,10.75
2023-04-19T23:11:10.103Z,10.75
2023-04-19T23:13:43.975Z,11.30
2023-04-19T23:16:12.065Z,11.95
2023-04-19T23:18:40.329Z,11.02
2023-04-19T23:21:08.620Z,10.65
2023-04-19T23:23:36.734Z,11.90
2023-04-19T23:26:04.230Z,9.63
2023-04-19T23:28:31.860Z,10.68
2023-04-19T23:30:59.854Z,10.55
2023-04-19T23:33:27.367Z,13.20
2023-04-19T23:35:54.998Z,11.52
2023-04-19T23:38:22.841Z,11.50
2023-04-19T23:40:50.393Z,10.20
2023-04-19T23:43:17.921Z,12.90
2023-04-19T23:45:45.774Z,11.55
2023-04-19T23:48:13.582Z,10.95
2023-04-19T23:50:41.052Z,12.00
2023-04-19T23:53:08.992Z,13.15
2023-04-19T23:55:38.020Z,12.45
2023-04-19T23:58:05.526Z,10.82
